createdAt,value
2018-04-02T00:01:00.483Z,25.40
2018-04-02T00:03:28.360Z,28.83
2018-04-02T00:05:56.235Z,29.20
2018-04-02T00:08:24.078Z,30.50
2018-04-02T00:10:51.957Z,27.00
2018-04-02T00:13:19.834Z,25.90
2018-04-02T00:15:47.672Z,28.23
2018-04-02T00:18:15.551Z,25.33
2018-04-02T00:20:43.468Z,24.63
2018-04-02T00:23:11.291Z,29.00
2018-04-02T00:25:39.160Z,28.60
2018-04-02T00:28:06.994Z,27.70
2018-04-02T00:30:34.887Z,22.03
2018-04-02T00:33:02.771Z,29.50
2018-04-02T00:35:30.911Z,27.73
2018-04-02T00:37:58.739Z,26.30
2018-04-02T00:40:26.656Z,25.90
2018-04-02T00:42:54.487Z,28.20
2018-04-02T00:45:22.308Z,26.37
2018-04-02T00:47:50.167Z,33.33
2018-04-02T00:50:17.991Z,29.00
2018-04-02T00:52:45.966Z,25.50
2018-04-02T00:55:13.868Z,30.27
2018-04-02T00:57:41.854Z,29.57
2018-04-02T01:00:09.751Z,28.57
2018-04-02T01:02:37.602Z,28.40
2018-04-02T01:05:05.472Z,32.97
2018-04-02T01:07:33.378Z,28.83
2018-04-02T01:10:01.238Z,30.60
2018-04-02T01:12:29.068Z,30.23
2018-04-02T01:14:56.912Z,34.63
2018-04-02T01:17:24.821Z,32.30
2018-04-02T01:19:52.692Z,33.80
2018-04-02T01:22:20.528Z,31.53
2018-04-02T01:24:48.401Z,28.43
2018-04-02T01:27:16.259Z,32.47
2018-04-02T01:29:44.103Z,28.27
2018-04-02T01:32:12.006Z,31.03
2018-04-02T01:34:39.850Z,30.30
2018-04-02T01:37:07.675Z,36.73
2018-04-02T01:39:35.580Z,31.03
2018-04-02T01:42:03.445Z,34.83
2018-04-02T01:44:31.267Z,29.80
2018-04-02T01:46:59.145Z,31.30
2018-04-02T01:49:27.032Z,34.03
2018-04-02T01:51:54.873Z,30.43
2018-04-02T01:54:22.777Z,31.33
2018-04-02T01:56:50.637Z,31.80
2018-04-02T01:59:18.496Z,32.53
2018-04-02T02:01:46.407Z,32.07
2018-04-02T02:04:14.247Z,33.80
2018-04-02T02:06:42.104Z,32.77
2018-04-02T02:09:09.972Z,29.43
2018-04-02T02:11:37.821Z,32.50
2018-04-02T02:14:05.666Z,33.40
2018-04-02T02:16:33.531Z,32.63
2018-04-02T02:19:01.363Z,33.60
2018-04-02T02:21:29.213Z,36.20
2018-04-02T02:23:57.071Z,36.03
2018-04-02T02:26:24.919Z,32.93
2018-04-02T02:28:52.768Z,35.00
2018-04-02T02:31:20.637Z,34.10
2018-04-02T02:33:48.503Z,39.30
2018-04-02T02:36:16.356Z,42.50
2018-04-02T02:38:44.256Z,38.03
2018-04-02T02:41:12.101Z,36.00
2018-04-02T02:43:39.957Z,37.23
2018-04-02T02:46:07.821Z,38.60
2018-04-02T02:48:35.669Z,36.67
2018-04-02T02:51:03.536Z,42.10
2018-04-02T02:53:31.444Z,36.97
2018-04-02T02:55:59.305Z,41.30
2018-04-02T02:58:27.201Z,37.33
2018-04-02T03:00:55.067Z,41.47
2018-04-02T03:03:22.926Z,44.00
2018-04-02T03:05:50.773Z,48.30
2018-04-02T03:08:18.636Z,39.03
2018-04-02T03:10:46.467Z,48.27
2018-04-02T03:13:14.293Z,39.70
2018-04-02T03:15:42.192Z,42.97
2018-04-02T03:18:10.077Z,45.80
2018-04-02T03:20:37.920Z,48.10
2018-04-02T03:23:05.804Z,46.23
2018-04-02T03:25:33.653Z,55.67
2018-04-02T03:28:01.488Z,45.80
2018-04-02T03:30:29.421Z,45.13
2018-04-02T03:32:57.255Z,45.70
2018-04-02T03:35:25.123Z,48.93
2018-04-02T03:37:53.005Z,53.30
2018-04-02T03:40:20.913Z,49.70
2018-04-02T03:42:48.757Z,49.57
2018-04-02T03:45:16.668Z,48.60
2018-04-02T03:47:44.513Z,48.30
2018-04-02T03:50:12.343Z,50.63
2018-04-02T03:52:40.207Z,47.63
2018-04-02T03:55:08.044Z,52.57
2018-04-02T03:57:35.916Z,50.03
2018-04-02T04:00:03.786Z,43.30
2018-04-02T04:02:31.629Z,45.70
2018-04-02T04:04:59.478Z,48.30
2018-04-02T04:07:27.351Z,50.47
2018-04-02T04:09:55.188Z,49.23
2018-04-02T04:12:23.052Z,48.30
2018-04-02T04:14:50.927Z,55.47
2018-04-02T04:17:18.760Z,44.20
2018-04-02T04:19:46.586Z,52.63
2018-04-02T04:22:14.445Z,50.33
2018-04-02T04:24:42.280Z,51.27
2018-04-02T04:27:10.134Z,51.00
2018-04-02T04:29:37.994Z,43.00
2018-04-02T04:32:05.822Z,50.70
2018-04-02T04:34:33.654Z,45.67
2018-04-02T04:37:01.569Z,48.13
2018-04-02T04:39:29.418Z,42.07
2018-04-02T04:41:57.256Z,49.67
2018-04-02T04:44:25.136Z,53.03
2018-04-02T04:46:52.987Z,52.37
2018-04-02T04:49:20.861Z,47.10
2018-04-02T04:51:48.723Z,48.10
2018-04-02T04:54:16.585Z,45.43
2018-04-02T04:56:44.424Z,45.20
2018-04-02T04:59:12.292Z,45.20
2018-04-02T05:01:40.119Z,48.13
2018-04-02T05:04:07.947Z,52.00
2018-04-02T05:06:35.859Z,47.67
2018-04-02T05:09:03.712Z,48.27
2018-04-02T05:11:31.549Z,51.33
2018-04-02T05:13:59.410Z,50.73
2018-04-02T05:16:27.254Z,41.67
2018-04-02T05:18:55.083Z,44.27
2018-04-02T05:21:22.998Z,46.33
2018-04-02T05:23:50.864Z,50.13
2018-04-02T05:26:18.720Z,50.53
2018-04-02T05:28:46.589Z,47.67
2018-04-02T05:31:14.423Z,41.77
2018-04-02T05:33:42.483Z,44.83
2018-04-02T05:36:10.385Z,46.27
2018-04-02T05:38:38.264Z,45.03
2018-04-02T05:41:06.099Z,46.83
2018-04-02T05:43:33.960Z,42.30
2018-04-02T05:46:01.786Z,44.90
2018-04-02T05:48:29.628Z,45.60
2018-04-02T05:50:57.554Z,41.80
2018-04-02T05:53:25.377Z,44.60
2018-04-02T05:55:53.235Z,43.50
2018-04-02T05:58:21.092Z,43.07
2018-04-02T06:00:48.923Z,40.33
2018-04-02T06:03:16.763Z,49.50
2018-04-02T06:05:44.673Z,42.13
2018-04-02T06:08:12.508Z,35.30
2018-04-02T06:10:40.346Z,49.10
2018-04-02T06:13:08.236Z,44.80
2018-04-02T06:15:36.069Z,37.03
2018-04-02T06:18:03.936Z,45.40
2018-04-02T06:20:31.814Z,43.73
2018-04-02T06:22:59.652Z,37.10
2018-04-02T06:25:27.488Z,38.17
2018-04-02T06:27:55.412Z,32.13
2018-04-02T06:30:23.264Z,40.57
2018-04-02T06:32:51.105Z,42.00
2018-04-02T06:35:19.004Z,35.90
2018-04-02T06:37:46.857Z,34.70
2018-04-02T06:40:14.738Z,34.53
2018-04-02T06:42:42.620Z,40.63
2018-04-02T06:45:10.529Z,37.90
2018-04-02T06:47:38.372Z,40.80
2018-04-02T06:50:06.269Z,30.67
2018-04-02T06:52:34.199Z,43.57
2018-04-02T06:55:02.067Z,39.70
2018-04-02T06:57:29.929Z,42.63
2018-04-02T06:59:57.771Z,40.53
2018-04-02T07:02:25.627Z,37.23
2018-04-02T07:04:53.503Z,35.00
2018-04-02T07:07:21.353Z,34.60
2018-04-02T07:09:49.246Z,37.20
2018-04-02T07:12:17.124Z,33.60
2018-04-02T07:14:44.981Z,36.33
2018-04-02T07:17:12.838Z,30.17
2018-04-02T07:19:40.769Z,38.00
2018-04-02T07:22:08.643Z,31.27
2018-04-02T07:24:36.501Z,34.73
2018-04-02T07:27:04.377Z,33.53
2018-04-02T07:29:32.244Z,31.53
2018-04-02T07:32:00.098Z,32.63
2018-04-02T07:34:27.964Z,32.73
2018-04-02T07:36:55.813Z,26.67
2018-04-02T07:39:23.672Z,28.97
2018-04-02T07:41:51.613Z,30.63
2018-04-02T07:44:19.521Z,29.47
2018-04-02T07:46:47.374Z,33.50
2018-04-02T07:49:15.269Z,31.10
2018-04-02T07:51:43.111Z,32.80
2018-04-02T07:54:10.946Z,32.90
2018-04-02T07:56:38.857Z,31.63
2018-04-02T07:59:06.735Z,32.50
2018-04-02T08:01:34.570Z,32.73
2018-04-02T08:04:02.443Z,29.50
2018-04-02T08:06:30.319Z,35.90
2018-04-02T08:08:58.216Z,28.60
2018-04-02T08:11:26.103Z,28.10
2018-04-02T08:13:53.957Z,26.10
2018-04-02T08:16:21.836Z,31.80
2018-04-02T08:18:49.717Z,32.30
2018-04-02T08:21:17.646Z,30.17
2018-04-02T08:23:45.501Z,25.80
2018-04-02T08:26:13.397Z,27.87
2018-04-02T08:28:41.255Z,31.17
2018-04-02T08:31:09.091Z,27.43
2018-04-02T08:33:36.989Z,24.13
2018-04-02T08:36:04.820Z,24.73
2018-04-02T08:38:32.903Z,32.67
2018-04-02T08:41:00.849Z,24.23
2018-04-02T08:43:28.733Z,29.40
2018-04-02T08:45:56.728Z,26.33
2018-04-02T08:48:24.721Z,22.20
2018-04-02T08:50:52.602Z,22.50
2018-04-02T08:53:20.688Z,25.57
2018-04-02T08:55:48.676Z,25.83
2018-04-02T08:58:17.588Z,25.70
2018-04-02T09:00:45.563Z,25.07
2018-04-02T09:03:14.793Z,21.70
2018-04-02T09:05:42.676Z,29.07
2018-04-02T09:08:10.542Z,20.80
2018-04-02T09:10:38.448Z,25.30
2018-04-02T09:13:06.314Z,30.20
2018-04-02T09:15:34.257Z,21.70
2018-04-02T09:18:02.226Z,21.23
2018-04-02T09:20:30.045Z,20.27
2018-04-02T09:22:57.941Z,21.37
2018-04-02T09:25:25.832Z,22.80
2018-04-02T09:27:53.694Z,28.27
2018-04-02T09:30:21.589Z,22.10
2018-04-02T09:32:49.476Z,25.30
2018-04-02T09:35:17.342Z,23.77
2018-04-02T09:37:45.208Z,21.60
2018-04-02T09:40:13.115Z,21.40
2018-04-02T09:42:40.964Z,23.43
2018-04-02T09:45:08.858Z,35.37
2018-04-02T09:47:36.749Z,18.30
2018-04-02T09:50:04.583Z,33.53
2018-04-02T09:52:32.439Z,22.50
2018-04-02T09:55:00.321Z,25.57
2018-04-02T09:57:28.245Z,24.50
2018-04-02T09:59:56.112Z,20.17
2018-04-02T10:02:24.050Z,20.70
2018-04-02T10:04:54.971Z,16.47
2018-04-02T10:07:22.786Z,23.73
2018-04-02T10:09:50.763Z,15.50
2018-04-02T10:12:18.949Z,17.57
2018-04-02T10:14:46.796Z,21.13
2018-04-02T10:17:14.696Z,21.93
2018-04-02T10:19:42.630Z,13.13
2018-04-02T10:22:10.479Z,14.10
2018-04-02T10:24:38.351Z,13.63
2018-04-02T10:27:08.587Z,15.23
2018-04-02T10:29:36.515Z,15.17
2018-04-02T10:32:04.350Z,13.27
2018-04-02T10:34:32.191Z,17.17
2018-04-02T10:37:00.030Z,12.60
2018-04-02T10:39:27.922Z,25.77
2018-04-02T10:41:56.604Z,14.13
2018-04-02T10:44:24.526Z,15.40
2018-04-02T10:46:52.455Z,17.43
2018-04-02T10:49:20.330Z,14.83
2018-04-02T10:51:48.210Z,14.37
2018-04-02T10:54:16.095Z,14.63
2018-04-02T10:56:43.984Z,14.47
2018-04-02T10:59:11.849Z,12.43
2018-04-02T11:01:39.719Z,16.00
2018-04-02T11:04:07.619Z,14.97
2018-04-02T11:06:35.469Z,13.90
2018-04-02T11:09:03.362Z,13.30
2018-04-02T11:11:31.230Z,11.33
2018-04-02T11:13:59.071Z,13.53
2018-04-02T11:16:26.957Z,13.87
2018-04-02T11:18:54.800Z,16.47
2018-04-02T11:21:22.668Z,11.10
2018-04-02T11:23:50.569Z,12.47
2018-04-02T11:26:18.437Z,13.80
2018-04-02T11:28:46.308Z,15.03
2018-04-02T11:31:14.237Z,16.90
2018-04-02T11:33:42.093Z,19.80
2018-04-02T11:36:09.984Z,15.63
2018-04-02T11:38:37.867Z,13.60
2018-04-02T11:41:05.699Z,10.87
2018-04-02T11:43:33.559Z,13.90
2018-04-02T11:46:01.440Z,13.53
2018-04-02T11:48:29.332Z,11.10
2018-04-02T11:50:57.203Z,12.07
2018-04-02T11:53:26.023Z,13.97
2018-04-02T11:55:53.885Z,23.20
2018-04-02T11:58:21.780Z,12.40
2018-04-02T12:00:49.682Z,12.40
2018-04-02T12:03:17.519Z,9.23
2018-04-02T12:05:45.392Z,12.40
2018-04-02T12:08:13.309Z,11.87
2018-04-02T12:10:41.182Z,13.23
2018-04-02T12:13:09.033Z,13.63
2018-04-02T12:15:36.914Z,12.50
2018-04-02T12:18:04.754Z,12.33
2018-04-02T12:20:32.653Z,12.73
2018-04-02T12:23:00.551Z,9.53
2018-04-02T12:25:28.414Z,11.67
2018-04-02T12:27:56.312Z,13.10
2018-04-02T12:30:24.233Z,14.23
2018-04-02T12:32:52.068Z,12.27
2018-04-02T12:35:19.917Z,16.93
2018-04-02T12:37:47.792Z,13.83
2018-04-02T12:40:15.645Z,12.60
2018-04-02T12:42:43.549Z,11.20
2018-04-02T12:45:11.446Z,13.60
2018-04-02T12:47:39.312Z,13.43
2018-04-02T12:50:07.192Z,17.97
2018-04-02T12:52:35.071Z,22.63
2018-04-02T12:55:02.911Z,14.50
2018-04-02T12:57:30.776Z,17.57
2018-04-02T12:59:58.705Z,11.70
2018-04-02T13:02:26.548Z,20.67
2018-04-02T13:04:54.695Z,15.83
2018-04-02T13:07:22.699Z,14.70
2018-04-02T13:09:50.603Z,14.37
2018-04-02T13:12:18.456Z,19.47
2018-04-02T13:14:46.414Z,21.77
2018-04-02T13:17:14.330Z,17.53
2018-04-02T13:19:42.191Z,13.60
2018-04-02T13:22:10.238Z,16.43
2018-04-02T13:24:38.080Z,17.00
2018-04-02T13:27:05.953Z,13.60
2018-04-02T13:29:33.863Z,17.63
2018-04-02T13:32:01.715Z,14.87
2018-04-02T13:34:29.602Z,16.27
2018-04-02T13:36:57.500Z,20.17
2018-04-02T13:39:25.335Z,15.37
2018-04-02T13:41:53.185Z,18.20
2018-04-02T13:44:21.082Z,21.67
2018-04-02T13:46:48.949Z,16.73
2018-04-02T13:49:16.809Z,18.00
2018-04-02T13:51:44.726Z,16.80
2018-04-02T13:54:13.326Z,16.77
2018-04-02T13:56:41.471Z,16.67
2018-04-02T13:59:09.353Z,18.13
2018-04-02T14:01:37.217Z,15.00
2018-04-02T14:04:05.095Z,17.30
2018-04-02T14:06:32.976Z,23.80
2018-04-02T14:09:00.843Z,16.47
2018-04-02T14:11:28.689Z,37.37
2018-04-02T14:13:56.973Z,18.40
2018-04-02T14:16:24.822Z,17.50
2018-04-02T14:18:52.679Z,19.60
2018-04-02T14:21:20.566Z,17.83
2018-04-02T14:23:48.405Z,22.53
2018-04-02T14:26:16.273Z,18.53
2018-04-02T14:28:44.158Z,19.10
2018-04-02T14:31:14.486Z,18.43
2018-04-02T14:33:42.489Z,20.33
2018-04-02T14:36:10.375Z,22.50
2018-04-02T14:38:38.260Z,18.90
2018-04-02T14:41:06.143Z,21.37
2018-04-02T14:43:34.045Z,21.67
2018-04-02T14:46:02.054Z,23.13
2018-04-02T14:48:29.913Z,28.80
2018-04-02T14:50:57.932Z,25.23
2018-04-02T14:53:25.812Z,22.40
2018-04-02T14:55:53.708Z,24.47
2018-04-02T14:58:21.568Z,20.77
2018-04-02T15:00:49.547Z,23.13
2018-04-02T15:03:17.356Z,30.47
2018-04-02T15:05:45.239Z,37.67
2018-04-02T15:08:13.077Z,25.00
2018-04-02T15:10:40.930Z,27.13
2018-04-02T15:13:08.884Z,32.30
2018-04-02T15:15:36.723Z,30.90
2018-04-02T15:18:06.602Z,26.47
2018-04-02T15:20:34.687Z,27.90
2018-04-02T15:23:02.543Z,29.90
2018-04-02T15:25:30.395Z,28.10
2018-04-02T15:27:58.298Z,30.10
2018-04-02T15:30:26.161Z,28.40
2018-04-02T15:32:54.040Z,29.20
2018-04-02T15:35:21.963Z,30.23
2018-04-02T15:37:49.945Z,34.00
2018-04-02T15:40:17.939Z,34.37
2018-04-02T15:42:45.810Z,32.17
2018-04-02T15:45:13.762Z,37.67
2018-04-02T15:47:41.671Z,29.50
2018-04-02T15:50:09.975Z,34.97
2018-04-02T15:52:37.918Z,35.03
2018-04-02T15:55:05.859Z,33.13
2018-04-02T15:57:33.810Z,35.93
2018-04-02T16:00:01.764Z,36.60
2018-04-02T16:02:29.786Z,33.97
2018-04-02T16:04:57.717Z,41.03
2018-04-02T16:07:25.704Z,46.23
2018-04-02T16:09:53.560Z,53.43
2018-04-02T16:12:21.449Z,31.47
2018-04-02T16:14:49.361Z,31.13
2018-04-02T16:17:17.676Z,35.60
2018-04-02T16:19:45.693Z,34.77
2018-04-02T16:22:13.601Z,39.70
2018-04-02T16:24:41.480Z,37.33
2018-04-02T16:27:09.459Z,41.77
2018-04-02T16:29:37.867Z,44.57
2018-04-02T16:32:05.718Z,42.40
2018-04-02T16:34:33.696Z,37.50
2018-04-02T16:37:01.612Z,38.27
2018-04-02T16:39:29.501Z,33.00
2018-04-02T16:41:57.376Z,35.67
2018-04-02T16:44:25.253Z,31.67
2018-04-02T16:46:53.188Z,34.87
2018-04-02T16:49:21.104Z,35.07
2018-04-02T16:51:48.944Z,44.20
2018-04-02T16:54:16.825Z,50.63
2018-04-02T16:56:44.824Z,36.60
2018-04-02T16:59:12.723Z,45.60
2018-04-02T17:01:40.584Z,41.93
2018-04-02T17:04:08.484Z,44.83
2018-04-02T17:06:36.346Z,43.20
2018-04-02T17:09:05.093Z,39.00
2018-04-02T17:11:33.051Z,46.53
2018-04-02T17:14:00.930Z,50.20
2018-04-02T17:16:28.900Z,47.77
2018-04-02T17:18:56.785Z,43.63
2018-04-02T17:21:26.027Z,51.17
2018-04-02T17:23:53.907Z,45.80
2018-04-02T17:26:21.901Z,46.63
2018-04-02T17:28:49.968Z,54.60
2018-04-02T17:31:17.976Z,60.13
2018-04-02T17:33:45.911Z,43.10
2018-04-02T17:36:13.977Z,48.90
2018-04-02T17:38:41.812Z,46.27
2018-04-02T17:41:09.741Z,45.07
2018-04-02T17:43:37.690Z,48.33
2018-04-02T17:46:05.885Z,43.13
2018-04-02T17:48:34.881Z,49.13
2018-04-02T17:51:02.768Z,46.20
2018-04-02T17:53:30.682Z,46.10
2018-04-02T17:55:59.079Z,45.47
2018-04-02T17:58:26.890Z,48.53
2018-04-02T18:00:54.816Z,43.67
2018-04-02T18:03:22.754Z,44.90
2018-04-02T18:05:50.599Z,45.53
2018-04-02T18:08:18.471Z,46.07
2018-04-02T18:10:46.537Z,51.63
2018-04-02T18:13:14.389Z,45.50
2018-04-02T18:15:42.249Z,52.97
2018-04-02T18:18:10.602Z,55.90
2018-04-02T18:20:38.540Z,44.97
2018-04-02T18:23:07.711Z,50.13
2018-04-02T18:25:35.939Z,56.83
2018-04-02T18:28:03.916Z,46.67
2018-04-02T18:30:32.032Z,47.87
2018-04-02T18:33:00.253Z,49.50
2018-04-02T18:35:28.171Z,48.80
2018-04-02T18:37:56.653Z,50.73
2018-04-02T18:40:24.906Z,48.27
2018-04-02T18:42:52.833Z,51.50
2018-04-02T18:45:20.823Z,51.90
2018-04-02T18:47:48.750Z,59.40
2018-04-02T18:50:16.666Z,51.00
2018-04-02T18:52:44.511Z,49.03
2018-04-02T18:55:12.422Z,47.20
2018-04-02T18:57:40.326Z,50.10
2018-04-02T19:00:08.199Z,48.87
2018-04-02T19:02:36.076Z,50.50
2018-04-02T19:05:04.029Z,62.53
2018-04-02T19:07:31.945Z,52.80
2018-04-02T19:09:59.849Z,49.30
2018-04-02T19:12:27.712Z,54.07
2018-04-02T19:14:55.611Z,47.70
2018-04-02T19:17:23.501Z,48.30
2018-04-02T19:19:51.364Z,52.37
2018-04-02T19:22:19.244Z,44.80
2018-04-02T19:24:47.251Z,45.73
2018-04-02T19:27:15.191Z,44.23
2018-04-02T19:29:44.217Z,47.07
2018-04-02T19:32:12.116Z,42.70
2018-04-02T19:34:40.022Z,48.30
2018-04-02T19:37:08.384Z,46.30
2018-04-02T19:39:36.333Z,42.30
2018-04-02T19:42:04.218Z,41.63
2018-04-02T19:44:32.144Z,44.23
2018-04-02T19:47:00.110Z,40.10
2018-04-02T19:49:28.129Z,42.70
2018-04-02T19:51:56.052Z,43.17
2018-04-02T19:54:24.313Z,40.87
2018-04-02T19:56:52.160Z,46.90
2018-04-02T19:59:20.132Z,43.30
2018-04-02T20:01:47.983Z,42.33
2018-04-02T20:04:16.299Z,40.90
2018-04-02T20:06:44.244Z,41.37
2018-04-02T20:09:12.187Z,43.13
2018-04-02T20:11:42.225Z,42.83
2018-04-02T20:14:11.540Z,40.93
2018-04-02T20:16:39.597Z,39.73
2018-04-02T20:19:07.886Z,39.70
2018-04-02T20:21:36.362Z,43.53
2018-04-02T20:24:04.276Z,40.57
2018-04-02T20:26:32.490Z,39.90
2018-04-02T20:29:00.434Z,36.80
2018-04-02T20:31:28.321Z,39.57
2018-04-02T20:33:56.464Z,40.13
2018-04-02T20:36:24.323Z,47.07
2018-04-02T20:38:52.220Z,43.73
2018-04-02T20:41:20.702Z,40.20
2018-04-02T20:43:48.934Z,42.50
2018-04-02T20:46:16.827Z,38.10
2018-04-02T20:48:44.737Z,40.73
2018-04-02T20:51:13.529Z,37.13
2018-04-02T20:53:41.476Z,41.40
2018-04-02T20:56:09.321Z,39.03
2018-04-02T20:58:37.188Z,37.50
2018-04-02T21:01:05.065Z,42.00
2018-04-02T21:03:33.192Z,38.90
2018-04-02T21:06:01.055Z,41.10
2018-04-02T21:08:29.021Z,35.63
2018-04-02T21:10:57.009Z,38.80
2018-04-02T21:13:24.931Z,36.50
2018-04-02T21:15:52.856Z,37.70
2018-04-02T21:18:20.802Z,40.50
2018-04-02T21:20:48.780Z,36.57
2018-04-02T21:23:16.716Z,37.07
2018-04-02T21:25:44.610Z,38.03
2018-04-02T21:28:12.470Z,38.00
2018-04-02T21:30:40.420Z,35.10
2018-04-02T21:33:08.507Z,38.47
2018-04-02T21:35:36.428Z,42.03
2018-04-02T21:38:04.297Z,41.20
2018-04-02T21:40:32.282Z,38.40
2018-04-02T21:43:00.188Z,40.93
2018-04-02T21:45:28.397Z,37.90
2018-04-02T21:47:56.660Z,38.00
2018-04-02T21:50:24.538Z,39.87
2018-04-02T21:52:52.414Z,38.30
2018-04-02T21:55:20.656Z,39.10
2018-04-02T21:57:48.548Z,42.60
2018-04-02T22:00:16.408Z,37.70
2018-04-02T22:02:44.243Z,36.90
2018-04-02T22:05:12.116Z,36.83
2018-04-02T22:07:39.957Z,39.97
2018-04-02T22:10:07.901Z,36.57
2018-04-02T22:12:35.812Z,37.33
2018-04-02T22:15:03.668Z,40.23
2018-04-02T22:17:31.494Z,37.40
2018-04-02T22:19:59.377Z,37.50
2018-04-02T22:22:27.332Z,37.37
2018-04-02T22:24:55.188Z,40.33
2018-04-02T22:27:23.068Z,38.03
2018-04-02T22:29:51.426Z,41.20
2018-04-02T22:32:19.516Z,42.00
2018-04-02T22:34:47.391Z,36.60
2018-04-02T22:37:15.251Z,37.50
2018-04-02T22:39:43.221Z,38.43
2018-04-02T22:42:11.089Z,33.70
2018-04-02T22:44:39.024Z,40.27
2018-04-02T22:47:06.860Z,39.00
2018-04-02T22:49:34.724Z,38.73
2018-04-02T22:52:02.561Z,36.43
2018-04-02T22:54:30.452Z,37.27
2018-04-02T22:56:58.416Z,32.30
2018-04-02T22:59:26.310Z,35.10
2018-04-02T23:01:55.135Z,36.50
2018-04-02T23:04:23.108Z,37.77
2018-04-02T23:06:54.334Z,38.93
2018-04-02T23:09:22.264Z,35.07
2018-04-02T23:11:50.234Z,41.83
2018-04-02T23:14:18.169Z,36.60
2018-04-02T23:16:46.092Z,38.93
2018-04-02T23:19:13.993Z,34.17
2018-04-02T23:21:43.043Z,35.30
2018-04-02T23:24:11.032Z,38.30
2018-04-02T23:26:38.951Z,36.33
2018-04-02T23:29:06.845Z,35.53
2018-04-02T23:31:34.745Z,35.47
2018-04-02T23:34:02.733Z,34.77
2018-04-02T23:36:30.631Z,34.27
2018-04-02T23:38:58.914Z,39.53
2018-04-02T23:41:26.796Z,38.63
2018-04-02T23:43:54.644Z,34.63
2018-04-02T23:46:22.525Z,37.57
2018-04-02T23:48:50.428Z,32.53
2018-04-02T23:51:18.304Z,36.07
2018-04-02T23:53:46.138Z,32.53
2018-04-02T23:56:14.039Z,33.20
2018-04-02T23:58:41.877Z,33.23
